Flight Track Log - Related Links

Times and Time Zones

All times are in EDT time to prevent confusion due to time zone crossing. See the N551US flight status page for this flight to view local times or setup timezone preferences in your user account.

Time Position Orientation Groundspeed Altitude Reporting Facility
EDT Latitude Longitude Course Direction KTS MPH feet Rate Location/Type
Tue 04:47:10 PM 35.1833 -90.0500 270° West 81 93 700  Level KMEM
Tue 04:47:52 PM 35.1833 -90.0833 270° West 130 150 1,100 706 Climbing KMEM
Tue 04:48:52 PM 35.2000 -90.1333 292° West 147 169 1,900 800 Climbing KMEM
Tue 04:49:52 PM 35.2167 -90.1500 321° Northwest 174 200 2,700 550 Climbing KMEM
Tue 04:50:52 PM 35.2667 -90.1333 15° North 182 209 3,000 200 Climbing KMEM
Tue 04:51:22 PM 35.2489 -90.1078 130° Southeast 171 197 3,000 587 Level Memphis Center
Tue 04:52:24 PM 35.2308 -90.0619 116° Southeast 156 180 3,900 726 Climbing Memphis Center
Tue 04:53:26 PM 35.2172 -90.0125 109° East 152 175 4,500 532 Climbing Memphis Center
Tue 04:54:28 PM 35.2022 -89.9642 111° Southeast 152 175 5,000 532 Climbing Memphis Center
Tue 04:55:30 PM 35.1878 -89.9144 110° East 152 175 5,600 581 Climbing Memphis Center
Tue 04:56:32 PM 35.1711 -89.8556 109° East 152 175 6,200 532 Climbing Memphis Center
Tue 04:57:34 PM 35.1550 -89.8061 112° Southeast 153 176 6,700 387 Climbing Memphis Center
Tue 04:58:36 PM 35.1403 -89.7556 110° East 153 176 7,000 144 Climbing Memphis Center
Tue 04:59:39 PM 35.1247 -89.7008 109° East 164 189 7,000  Level Memphis Center
Tue 05:00:41 PM 35.1069 -89.6419 110° East 178 205 7,000 -48 Level Memphis Center
Tue 05:01:43 PM 35.0889 -89.5833 111° Southeast 180 207 6,900 -48 Descending Memphis Center
Tue 05:02:45 PM 35.0681 -89.5131 110° East 180 207 6,900  Level Memphis Center
Tue 05:03:47 PM 35.0503 -89.4550 110° East 180 207 6,900  Level Memphis Center
Tue 05:04:49 PM 35.0322 -89.3947 110° East 184 212 6,900  Level Memphis Center
Tue 05:05:51 PM 35.0142 -89.3350 110° East 184 212 6,900 48 Level Memphis Center
Tue 05:06:53 PM 34.9961 -89.2767 111° Southeast 185 213 7,000 48 Climbing Memphis Center
Tue 05:07:55 PM 34.9786 -89.2169 110° East 185 213 7,000  Level Memphis Center
Tue 05:08:57 PM 34.9606 -89.1589 111° Southeast 185 213 7,000  Level Memphis Center
Tue 05:09:59 PM 34.9403 -89.0903 110° East 184 212 7,000  Level Memphis Center
Tue 05:11:01 PM 34.9222 -89.0319 111° Southeast 184 212 7,000  Level Memphis Center
Tue 05:12:03 PM 34.9042 -88.9756 111° Southeast 183 211 7,000  Level Memphis Center
Tue 05:13:06 PM 34.8875 -88.9192 110° East 181 208 7,000  Level Memphis Center
Tue 05:14:08 PM 34.8694 -88.8619 111° Southeast 181 208 7,000  Level Memphis Center
Tue 05:15:10 PM 34.8528 -88.8056 110° East 181 208 7,000  Level Memphis Center
Tue 05:16:12 PM 34.8308 -88.7375 111° Southeast 181 208 7,000  Level Memphis Center
Tue 05:17:14 PM 34.8136 -88.6814 110° East 180 207 7,000  Level Memphis Center
Tue 05:18:16 PM 34.7958 -88.6247 111° Southeast 180 207 7,000  Level Memphis Center
Tue 05:19:18 PM 34.7792 -88.5675 110° East 180 207 7,000  Level Memphis Center
Tue 05:20:20 PM 34.7603 -88.5111 112° Southeast 180 207 7,000  Level Memphis Center
Tue 05:21:22 PM 34.7414 -88.4492 110° East 180 207 7,000  Level Memphis Center
Tue 05:22:24 PM 34.7236 -88.3933 111° Southeast 179 206 7,000  Level Memphis Center
Tue 05:23:26 PM 34.7064 -88.3369 110° East 179 206 7,000  Level Memphis Center
Tue 05:24:28 PM 34.6894 -88.2811 110° East 179 206 7,000  Level Memphis Center
Tue 05:25:30 PM 34.6681 -88.2136 111° Southeast 179 206 7,000 48 Level Memphis Center
Tue 05:26:32 PM 34.6489 -88.1578 113° Southeast 179 206 7,100 48 Climbing Memphis Center
Tue 05:27:34 PM 34.6314 -88.1000 110° East 179 206 7,100  Level Memphis Center
Tue 05:28:37 PM 34.6131 -88.0417 111° Southeast 181 208 7,100  Level Memphis Center
Tue 05:29:39 PM 34.5950 -87.9847 111° Southeast 182 209 7,100  Level Memphis Center
Tue 05:30:41 PM 34.5769 -87.9275 111° Southeast 182 209 7,100  Level Memphis Center
Tue 05:31:43 PM 34.5547 -87.8592 112° Southeast 182 209 7,100  Level Memphis Center
Tue 05:32:45 PM 34.5386 -87.8081 111° Southeast 182 209 7,100  Level Memphis Center
Tue 05:33:47 PM 34.5183 -87.7442 111° Southeast 182 209 7,100  Level Memphis Center
Tue 05:34:49 PM 34.4997 -87.6867 111° Southeast 182 209 7,100  Level Memphis Center
Tue 05:35:51 PM 34.4811 -87.6281 111° Southeast 182 209 7,100  Level Memphis Center
Tue 05:36:53 PM 34.4622 -87.5700 112° Southeast 182 209 7,100  Level Memphis Center
Tue 05:37:55 PM 34.4433 -87.5097 111° Southeast 182 209 7,100  Level Memphis Center
Tue 05:38:57 PM 34.4239 -87.4506 112° Southeast 182 209 7,100  Level Memphis Center
Tue 05:39:59 PM 34.4014 -87.3800 111° Southeast 183 211 7,100  Level Memphis Center
Tue 05:41:01 PM 34.3825 -87.3219 112° Southeast 183 211 7,100 -145 Level Memphis Center
Tue 05:42:03 PM 34.3636 -87.2647 112° Southeast 183 211 6,800 -339 Descending Memphis Center
Tue 05:43:05 PM 34.3439 -87.2031 111° Southeast 187 215 6,400 -384 Descending Memphis Center
Tue 05:44:08 PM 34.3244 -87.1433 112° Southeast 190 219 6,000 -384 Descending Memphis Center
Tue 05:45:10 PM 34.3064 -87.0872 111° Southeast 187 215 5,600 -387 Descending Memphis Center
Tue 05:46:12 PM 34.2833 -87.0169 112° Southeast 186 214 5,200 -290 Descending Memphis Center
Tue 05:47:14 PM 34.2636 -86.9581 112° Southeast 187 215 5,000 -97 Descending Memphis Center
Tue 05:48:16 PM 34.2450 -86.8992 111° Southeast 187 215 5,000  Level Memphis Center
Tue 05:49:18 PM 34.2264 -86.8433 112° Southeast 186 214 5,000  Level Memphis Center
Tue 05:50:20 PM 34.2081 -86.7872 112° Southeast 184 212 5,000  Level Memphis Center
Tue 05:51:22 PM 34.1886 -86.7317 113° Southeast 184 212 5,000  Level Memphis Center
Tue 05:52:24 PM 34.1675 -86.6633 110° East 183 211 5,000  Level Memphis Center
Tue 05:53:26 PM 34.1475 -86.6072 113° Southeast 183 211 5,000 -97 Level Memphis Center
Tue 05:54:28 PM 34.1278 -86.5511 113° Southeast 183 211 4,800 -457 Descending Memphis Center
Tue 05:54:58 PM 34.1156 -86.5228 118° Southeast 174 200 4,300 -740 Descending Atlanta Center
Tue 05:55:41 PM 34.1039 -86.4872 112° Southeast 165 190 3,900 -577 Descending Atlanta Center
Tue 05:56:42 PM 34.0881 -86.4367 111° Southeast 165 190 3,300 -307 Descending Atlanta Center
Tue 05:58:37 PM 34.0572 -86.3339 110° East 168 193 3,000 -169 Descending Memphis Center
Tue 05:59:39 PM 34.0386 -86.2839 114° Southeast 167 192 2,800 -145 Descending Memphis Center
Tue 06:00:41 PM 34.0214 -86.2369 114° Southeast 167 192 2,700 -97 Descending Memphis Center
Tue 06:02:00 PM 33.9977 -86.1724 114° Southeast  Level FlightAware Approximate

Login

Don't have an account? Register now (free) for customized features, flight alerts, and more!